createdAt,value
2023-01-12T00:01:55.052Z,100305.03
2023-01-12T00:04:22.045Z,100294.63
2023-01-12T00:06:48.683Z,100294.63
2023-01-12T00:09:15.403Z,100298.09
2023-01-12T00:11:42.198Z,100285.94
2023-01-12T00:14:09.777Z,100285.94
2023-01-12T00:16:37.115Z,100292.88
2023-01-12T00:19:05.782Z,100272.88
2023-01-12T00:21:38.476Z,100278.06
2023-01-12T00:24:07.252Z,100272.00
2023-01-12T00:26:34.205Z,100265.03
2023-01-12T00:29:01.194Z,100259.81
2023-01-12T00:31:27.752Z,100290.19
2023-01-12T00:33:54.620Z,100278.91
2023-01-12T00:36:21.379Z,100287.59
2023-01-12T00:38:48.446Z,100270.22
2023-01-12T00:41:34.941Z,100260.63
2023-01-12T00:44:20.657Z,100262.34
2023-01-12T00:46:47.117Z,100246.72
2023-01-12T00:49:13.755Z,100245.00
2023-01-12T00:51:43.846Z,100260.66
2023-01-12T00:54:11.246Z,100257.19
2023-01-12T00:56:38.857Z,100256.34
2023-01-12T00:59:06.403Z,100249.38
2023-01-12T01:01:34.528Z,100258.91
2023-01-12T01:04:01.660Z,100245.00
2023-01-12T01:06:28.075Z,100242.38
2023-01-12T01:08:54.913Z,100253.66
2023-01-12T01:11:21.427Z,100244.97
2023-01-12T01:13:49.038Z,100244.97
2023-01-12T01:16:17.586Z,100243.19
2023-01-12T01:18:44.881Z,100242.28
2023-01-12T01:21:13.587Z,100241.41
2023-01-12T01:23:42.219Z,100229.19
2023-01-12T01:26:13.351Z,100247.41
2023-01-12T01:28:40.695Z,100243.97
2023-01-12T01:31:13.871Z,100322.13
2023-01-12T01:33:41.158Z,100334.47
2023-01-12T01:36:08.242Z,100306.03
2023-01-12T01:38:35.605Z,100294.88
2023-01-12T01:41:03.066Z,100294.16
2023-01-12T01:43:47.575Z,100299.53
2023-01-12T01:46:19.903Z,100291.84
2023-01-12T01:48:46.490Z,100291.06
2023-01-12T01:51:16.010Z,100286.81
2023-01-12T01:53:45.642Z,100292.06
2023-01-12T01:56:17.950Z,100282.56
2023-01-12T01:58:50.911Z,100273.06
2023-01-12T02:01:17.402Z,100287.81
2023-01-12T02:03:45.230Z,100310.41
2023-01-12T02:06:12.571Z,100311.25
2023-01-12T02:09:15.140Z,100290.44
2023-01-12T02:12:00.780Z,100282.66
2023-01-12T02:14:45.741Z,100275.72
2023-01-12T02:17:15.197Z,100279.19
2023-01-12T02:20:09.795Z,100285.22
2023-01-12T02:22:48.935Z,100284.34
2023-01-12T02:25:45.988Z,100286.94
2023-01-12T02:28:21.822Z,100291.25
2023-01-12T02:31:22.953Z,100284.28
2023-01-12T02:33:59.705Z,100272.13
2023-01-12T02:36:50.881Z,100266.91
2023-01-12T02:39:29.609Z,100266.03
2023-01-12T02:42:42.941Z,100250.44
2023-01-12T02:45:15.939Z,100256.56
2023-01-12T02:47:57.730Z,100248.75
2023-01-12T02:50:47.876Z,100253.13
2023-01-12T02:53:20.920Z,100242.72
2023-01-12T02:55:48.837Z,100252.22
2023-01-12T02:58:19.202Z,100250.47
2023-01-12T03:00:49.201Z,100246.13
2023-01-12T03:03:17.200Z,100241.75
2023-01-12T03:05:43.956Z,100247.81
2023-01-12T03:08:21.478Z,100240.91
2023-01-12T03:11:08.246Z,100240.03
2023-01-12T03:13:37.307Z,100233.97
2023-01-12T03:16:06.598Z,100234.81
2023-01-12T03:18:38.417Z,100230.50
2023-01-12T03:21:30.779Z,100237.41
2023-01-12T03:24:05.090Z,100232.22
2023-01-12T03:26:33.807Z,100231.28
2023-01-12T03:29:18.881Z,100222.56
2023-01-12T03:31:46.137Z,100220.75
2023-01-12T03:34:13.013Z,100217.19
2023-01-12T03:36:46.628Z,100220.59
2023-01-12T03:39:37.206Z,100223.13
2023-01-12T03:42:15.768Z,100218.72
2023-01-12T03:45:02.557Z,100220.38
2023-01-12T03:47:31.951Z,100210.81
2023-01-12T03:50:14.662Z,100215.09
2023-01-12T03:52:43.364Z,100201.09
2023-01-12T03:55:13.061Z,100201.09
2023-01-12T03:57:40.226Z,100206.25
2023-01-12T04:00:09.064Z,100202.75
2023-01-12T04:02:39.690Z,100208.78
2023-01-12T04:05:08.782Z,100204.44
2023-01-12T04:07:38.609Z,100203.53
2023-01-12T04:10:06.215Z,100198.31
2023-01-12T04:12:32.770Z,100187.84
2023-01-12T04:14:59.753Z,100201.69
2023-01-12T04:17:27.888Z,100199.09
2023-01-12T04:19:54.608Z,100196.47
2023-01-12T04:22:39.996Z,100190.41
2023-01-12T04:25:08.685Z,100193.84
2023-01-12T04:27:36.578Z,100196.44
2023-01-12T04:30:03.993Z,100195.56
2023-01-12T04:32:30.937Z,100188.63
2023-01-12T04:34:57.377Z,100182.50
2023-01-12T04:37:23.930Z,100173.84
2023-01-12T04:39:50.585Z,100176.41
2023-01-12T04:42:35.991Z,100172.94
2023-01-12T04:45:02.650Z,100164.22
2023-01-12T04:47:29.161Z,100160.75
2023-01-12T04:49:55.860Z,100161.63
2023-01-12T04:52:22.922Z,100159.00
2023-01-12T04:54:49.489Z,100164.19
2023-01-12T04:57:16.385Z,100158.97
2023-01-12T04:59:42.878Z,100145.94
2023-01-12T05:02:09.425Z,100155.44
2023-01-12T05:04:36.376Z,100142.41
2023-01-12T05:07:02.913Z,100143.28
2023-01-12T05:09:48.102Z,100145.84
2023-01-12T05:12:14.809Z,100139.72
2023-01-12T05:14:41.343Z,100146.63
2023-01-12T05:17:07.931Z,100135.28
2023-01-12T05:19:34.636Z,100132.69
2023-01-12T05:22:01.327Z,100126.59
2023-01-12T05:24:27.798Z,100126.56
2023-01-12T05:26:54.826Z,100121.31
2023-01-12T05:29:21.394Z,100119.59
2023-01-12T05:31:47.916Z,100101.34
2023-01-12T05:34:14.775Z,100107.38
2023-01-12T05:36:41.419Z,100093.50
2023-01-12T05:39:07.869Z,100095.22
2023-01-12T05:41:34.864Z,100091.72
2023-01-12T05:44:01.330Z,100085.63
2023-01-12T05:46:30.804Z,100076.03
2023-01-12T05:48:58.188Z,100077.78
2023-01-12T05:51:26.550Z,100070.00
2023-01-12T05:53:54.442Z,100069.13
2023-01-12T05:56:25.879Z,100056.97
2023-01-12T05:59:01.082Z,100054.38
2023-01-12T06:01:29.426Z,100044.78
2023-01-12T06:03:58.234Z,100039.56
2023-01-12T06:06:27.967Z,100042.16
2023-01-12T06:08:55.077Z,100035.22
2023-01-12T06:11:40.300Z,100023.91
2023-01-12T06:14:07.920Z,100015.25
2023-01-12T06:16:38.258Z,100019.63
2023-01-12T06:19:04.896Z,100013.47
2023-01-12T06:21:32.755Z,100008.28
2023-01-12T06:23:59.223Z,100007.38
2023-01-12T06:26:25.996Z,100010.00
2023-01-12T06:28:52.535Z,99996.13
2023-01-12T06:31:19.796Z,99998.69
2023-01-12T06:33:46.461Z,99996.94
2023-01-12T06:36:13.312Z,99978.66
2023-01-12T06:38:40.061Z,99974.34
2023-01-12T06:41:29.075Z,99971.72
2023-01-12T06:43:56.583Z,99967.34
2023-01-12T06:46:23.422Z,99958.69
2023-01-12T06:48:50.005Z,99958.69
2023-01-12T06:51:18.045Z,99955.19
2023-01-12T06:53:44.779Z,99952.53
2023-01-12T06:56:11.542Z,99950.75
2023-01-12T06:58:37.965Z,99946.41
2023-01-12T07:01:04.920Z,99936.88
2023-01-12T07:03:31.433Z,99929.88
2023-01-12T07:05:59.401Z,99935.09
2023-01-12T07:08:27.334Z,99934.22
2023-01-12T07:10:54.700Z,99923.75
2023-01-12T07:13:22.192Z,99910.69
2023-01-12T07:15:49.037Z,99909.75
2023-01-12T07:18:15.858Z,99896.69
2023-01-12T07:20:42.457Z,99894.09
2023-01-12T07:23:09.082Z,99889.72
2023-01-12T07:25:39.019Z,99876.66
2023-01-12T07:28:05.648Z,99868.81
2023-01-12T07:30:32.494Z,99867.00
2023-01-12T07:33:12.559Z,99851.31
2023-01-12T07:35:40.239Z,99853.09
2023-01-12T07:38:07.245Z,99847.00
2023-01-12T07:40:34.138Z,99842.56
2023-01-12T07:43:08.522Z,99830.38
2023-01-12T07:45:38.970Z,99823.44
2023-01-12T07:48:12.030Z,99826.00
2023-01-12T07:50:45.112Z,99819.94
2023-01-12T07:53:16.072Z,99805.94
2023-01-12T07:55:48.855Z,99815.50
2023-01-12T07:58:16.443Z,99805.03
2023-01-12T08:01:04.711Z,99801.53
2023-01-12T08:03:36.628Z,99806.69
2023-01-12T08:06:03.910Z,99790.97
2023-01-12T08:08:30.796Z,99785.75
2023-01-12T08:11:05.586Z,99791.84
2023-01-12T08:13:33.610Z,99789.25
2023-01-12T08:16:07.106Z,99771.78
2023-01-12T08:18:42.152Z,99766.53
2023-01-12T08:21:16.891Z,99769.09
2023-01-12T08:23:48.187Z,99745.63
2023-01-12T08:26:18.896Z,99741.28
2023-01-12T08:29:13.521Z,99729.97
2023-01-12T08:31:48.373Z,99731.69
2023-01-12T08:34:16.538Z,99711.66
2023-01-12T08:36:44.699Z,99714.22
2023-01-12T08:39:11.638Z,99721.16
2023-01-12T08:41:40.437Z,99699.50
2023-01-12T08:44:11.453Z,99716.00
2023-01-12T08:46:49.078Z,99693.44
2023-01-12T08:49:17.509Z,99689.16
2023-01-12T08:51:45.168Z,99692.59
2023-01-12T08:54:14.213Z,99692.56
2023-01-12T08:56:40.954Z,99683.91
2023-01-12T08:59:08.001Z,99683.03
2023-01-12T09:01:35.669Z,99683.03
2023-01-12T09:04:02.615Z,99682.19
2023-01-12T09:06:41.400Z,99681.34
2023-01-12T09:09:10.507Z,99678.72
2023-01-12T09:11:39.066Z,99675.25
2023-01-12T09:14:06.168Z,99670.06
2023-01-12T09:16:33.419Z,99666.56
2023-01-12T09:19:00.591Z,99667.41
2023-01-12T09:21:27.914Z,99671.75
2023-01-12T09:23:54.851Z,99669.13
2023-01-12T09:26:31.835Z,99655.16
2023-01-12T09:28:59.705Z,99649.91
2023-01-12T09:31:27.420Z,99655.94
2023-01-12T09:33:54.675Z,99656.75
2023-01-12T09:36:33.137Z,99677.56
2023-01-12T09:39:01.540Z,99660.97
2023-01-12T09:41:50.035Z,99657.47
2023-01-12T09:44:46.575Z,99636.56
2023-01-12T09:47:35.686Z,99639.13
2023-01-12T09:50:23.103Z,99643.41
2023-01-12T09:52:56.240Z,99650.22
2023-01-12T09:55:25.894Z,99662.28
2023-01-12T09:57:58.597Z,99646.50
2023-01-12T10:00:28.049Z,99642.00
2023-01-12T10:03:09.976Z,99647.97
2023-01-12T10:05:48.990Z,99652.19
2023-01-12T10:08:38.351Z,99646.09
2023-01-12T10:11:25.042Z,99645.94
2023-01-12T10:14:01.742Z,99652.81
2023-01-12T10:16:53.491Z,99648.38
2023-01-12T10:19:50.590Z,99647.41
2023-01-12T10:22:36.924Z,99649.94
2023-01-12T10:25:25.528Z,99653.28
2023-01-12T10:27:55.186Z,99650.59
2023-01-12T10:30:36.809Z,99652.25
2023-01-12T10:33:17.145Z,99664.38
2023-01-12T10:36:01.597Z,99659.97
2023-01-12T10:38:28.347Z,99661.59
2023-01-12T10:41:10.175Z,99659.75
2023-01-12T10:43:38.065Z,99653.53
2023-01-12T10:46:16.172Z,99638.63
2023-01-12T10:48:48.416Z,99648.94
2023-01-12T10:51:24.121Z,99643.66
2023-01-12T10:54:01.348Z,99650.59
2023-01-12T10:56:33.407Z,99642.66
2023-01-12T10:59:07.395Z,99623.41
2023-01-12T11:02:02.937Z,99639.88
2023-01-12T11:04:30.024Z,99623.25
2023-01-12T11:07:02.272Z,99638.03
2023-01-12T11:09:31.713Z,99642.31
2023-01-12T11:12:01.342Z,99643.03
2023-01-12T11:14:39.961Z,99642.97
2023-01-12T11:17:39.440Z,99629.78
2023-01-12T11:20:18.313Z,99633.19
2023-01-12T11:22:46.976Z,99621.00
2023-01-12T11:25:21.343Z,99636.63
2023-01-12T11:28:02.698Z,99639.19
2023-01-12T11:30:54.572Z,99621.69
2023-01-12T11:33:44.173Z,99628.50
2023-01-12T11:36:17.426Z,99636.22
2023-01-12T11:38:47.470Z,99643.06
2023-01-12T11:41:29.828Z,99637.72
2023-01-12T11:44:02.991Z,99643.66
2023-01-12T11:46:49.588Z,99628.75
2023-01-12T11:49:19.816Z,99646.94
2023-01-12T11:51:53.522Z,99631.19
2023-01-12T11:54:20.210Z,99638.91
2023-01-12T11:56:55.726Z,99643.16
2023-01-12T11:59:25.596Z,99636.09
2023-01-12T12:02:28.888Z,99636.78
2023-01-12T12:05:20.713Z,99636.66
2023-01-12T12:07:56.000Z,99634.75
2023-01-12T12:10:44.668Z,99640.59
2023-01-12T12:13:29.794Z,99640.34
2023-01-12T12:16:15.215Z,99641.88
2023-01-12T12:19:19.322Z,99639.94
2023-01-12T12:21:57.267Z,99638.94
2023-01-12T12:24:38.803Z,99641.44
2023-01-12T12:27:48.761Z,99645.63
2023-01-12T12:30:21.386Z,99639.47
2023-01-12T12:33:06.448Z,99632.44
2023-01-12T12:35:57.809Z,99637.59
2023-01-12T12:38:50.717Z,99627.94
2023-01-12T12:42:06.396Z,99627.00
2023-01-12T12:45:15.238Z,99636.53
2023-01-12T12:47:47.352Z,99647.88
2023-01-12T12:50:23.152Z,99641.69
2023-01-12T12:53:02.981Z,99648.66
2023-01-12T12:55:30.546Z,99658.16
2023-01-12T12:58:26.675Z,99668.50
2023-01-12T13:00:54.995Z,99675.44
2023-01-12T13:03:39.935Z,99691.16
2023-01-12T13:06:26.890Z,99698.13
2023-01-12T13:08:58.825Z,99702.47
2023-01-12T13:12:00.051Z,99703.34
2023-01-12T13:14:41.680Z,99710.38
2023-01-12T13:17:20.942Z,99711.28
2023-01-12T13:20:24.591Z,99725.25
2023-01-12T13:22:52.195Z,99727.00
2023-01-12T13:25:24.533Z,99724.44
2023-01-12T13:28:03.022Z,99740.16
2023-01-12T13:30:29.782Z,99743.72
2023-01-12T13:32:59.190Z,99749.88
2023-01-12T13:35:27.557Z,99739.47
2023-01-12T13:38:33.331Z,99754.38
2023-01-12T13:41:17.883Z,99776.31
2023-01-12T13:43:55.768Z,99779.00
2023-01-12T13:46:30.089Z,99782.56
2023-01-12T13:49:25.585Z,99792.31
2023-01-12T13:52:29.187Z,99786.19
2023-01-12T13:54:56.177Z,99791.50
2023-01-12T13:57:27.432Z,99786.38
2023-01-12T14:00:08.822Z,99812.72
2023-01-12T14:02:42.002Z,99816.22
2023-01-12T14:05:44.041Z,99830.25
2023-01-12T14:08:34.418Z,99827.75
2023-01-12T14:11:36.192Z,99823.41
2023-01-12T14:14:43.460Z,99818.28
2023-01-12T14:17:46.467Z,99830.56
2023-01-12T14:20:22.248Z,99830.56
2023-01-12T14:22:49.988Z,99832.31
2023-01-12T14:25:23.355Z,99835.00
2023-01-12T14:27:51.502Z,99835.94
2023-01-12T14:30:18.571Z,99842.13
2023-01-12T14:32:48.837Z,99840.41
2023-01-12T14:35:21.764Z,99850.94
2023-01-12T14:38:00.804Z,99853.59
2023-01-12T14:40:31.862Z,99852.69
2023-01-12T14:43:19.780Z,99859.72
2023-01-12T14:46:20.304Z,99852.81
2023-01-12T14:48:56.958Z,99853.66
2023-01-12T14:51:36.782Z,99852.84
2023-01-12T14:54:18.654Z,99851.97
2023-01-12T14:56:50.740Z,99851.19
2023-01-12T14:59:23.659Z,99859.09
2023-01-12T15:01:51.888Z,99852.97
2023-01-12T15:04:25.054Z,99852.28
2023-01-12T15:07:04.415Z,99857.47
2023-01-12T15:09:37.172Z,99865.38
2023-01-12T15:12:28.347Z,99867.16
2023-01-12T15:15:13.781Z,99864.59
2023-01-12T15:17:58.894Z,99875.91
2023-01-12T15:20:46.752Z,99874.22
2023-01-12T15:23:32.191Z,99877.72
2023-01-12T15:25:58.676Z,99885.63
2023-01-12T15:28:25.488Z,99882.16
2023-01-12T15:30:55.773Z,99879.59
2023-01-12T15:33:22.969Z,99880.47
2023-01-12T15:35:50.259Z,99876.06
2023-01-12T15:38:18.030Z,99876.13
2023-01-12T15:40:47.806Z,99877.84
2023-01-12T15:43:16.732Z,99874.41
2023-01-12T15:45:45.739Z,99887.47
2023-01-12T15:48:15.049Z,99891.91
2023-01-12T15:50:44.479Z,99888.41
2023-01-12T15:53:16.168Z,99885.84
2023-01-12T15:55:43.083Z,99888.47
2023-01-12T15:58:09.938Z,99885.13
2023-01-12T16:00:36.985Z,99884.28
2023-01-12T16:03:03.619Z,99882.63
2023-01-12T16:05:30.211Z,99880.94
2023-01-12T16:07:59.938Z,99885.38
2023-01-12T16:10:30.153Z,99885.44
2023-01-12T16:12:59.641Z,99880.25
2023-01-12T16:15:26.290Z,99892.44
2023-01-12T16:17:52.955Z,99897.72
2023-01-12T16:20:22.241Z,99894.25
2023-01-12T16:22:49.412Z,99885.59
2023-01-12T16:25:16.803Z,99888.19
2023-01-12T16:27:43.378Z,99889.13
2023-01-12T16:30:13.817Z,99884.78
2023-01-12T16:32:45.845Z,99890.91
2023-01-12T16:35:13.549Z,99887.47
2023-01-12T16:37:40.727Z,99885.69
2023-01-12T16:40:07.930Z,99883.06
2023-01-12T16:42:37.284Z,99887.47
2023-01-12T16:45:04.534Z,99883.13
2023-01-12T16:47:33.591Z,99878.75
2023-01-12T16:50:01.347Z,99874.44
2023-01-12T16:52:28.154Z,99869.16
2023-01-12T16:54:54.925Z,99876.19
2023-01-12T16:57:21.530Z,99874.44
2023-01-12T16:59:49.734Z,99862.25
2023-01-12T17:02:18.430Z,99855.28
2023-01-12T17:04:48.984Z,99855.28
2023-01-12T17:07:16.482Z,99857.00
2023-01-12T17:09:43.865Z,99848.22
2023-01-12T17:12:11.470Z,99843.88
2023-01-12T17:14:38.117Z,99843.72
2023-01-12T17:17:08.227Z,99839.38
2023-01-12T17:19:37.005Z,99847.16
2023-01-12T17:22:06.364Z,99847.97
2023-01-12T17:24:35.075Z,99836.50
2023-01-12T17:27:02.353Z,99838.06
2023-01-12T17:29:28.998Z,99844.91
2023-01-12T17:32:03.296Z,99834.34
2023-01-12T17:34:32.555Z,99833.38
2023-01-12T17:37:07.441Z,99830.66
2023-01-12T17:39:35.683Z,99827.09
2023-01-12T17:42:20.991Z,99824.25
2023-01-12T17:44:47.892Z,99818.09
2023-01-12T17:47:14.877Z,99811.97
2023-01-12T17:49:41.631Z,99816.19
2023-01-12T17:52:08.100Z,99811.75
2023-01-12T17:54:35.264Z,99811.63
2023-01-12T17:57:01.763Z,99801.16
2023-01-12T17:59:28.375Z,99809.72
2023-01-12T18:01:55.457Z,99802.69
2023-01-12T18:04:22.274Z,99811.34
2023-01-12T18:06:48.932Z,99806.94
2023-01-12T18:09:16.306Z,99793.84
2023-01-12T18:11:43.079Z,99798.19
2023-01-12T18:14:09.990Z,99791.22
2023-01-12T18:16:42.293Z,99797.19
2023-01-12T18:19:10.553Z,99793.69
2023-01-12T18:21:37.045Z,99792.78
2023-01-12T18:24:05.324Z,99790.97
2023-01-12T18:26:35.637Z,99798.81
2023-01-12T18:29:07.865Z,99789.19
2023-01-12T18:31:42.161Z,99787.44
2023-01-12T18:34:08.938Z,99790.91
2023-01-12T18:36:40.714Z,99782.16
2023-01-12T18:39:10.957Z,99787.31
2023-01-12T18:41:56.224Z,99782.94
2023-01-12T18:44:24.013Z,99775.09
2023-01-12T18:47:09.927Z,99765.50
2023-01-12T18:49:37.600Z,99763.72
2023-01-12T18:52:23.348Z,99761.09
2023-01-12T18:54:53.792Z,99756.72
2023-01-12T18:57:23.800Z,99737.56
2023-01-12T18:59:55.201Z,99743.69
2023-01-12T19:02:24.371Z,99737.56
2023-01-12T19:04:50.967Z,99735.84
2023-01-12T19:07:34.968Z,99737.56
2023-01-12T19:10:02.492Z,99730.53
2023-01-12T19:12:31.120Z,99727.09
2023-01-12T19:15:16.121Z,99727.84
2023-01-12T19:17:42.664Z,99725.22
2023-01-12T19:20:14.680Z,99719.13
2023-01-12T19:23:00.781Z,99723.50
2023-01-12T19:25:46.029Z,99724.28
2023-01-12T19:28:35.309Z,99724.28
2023-01-12T19:31:05.276Z,99723.34
2023-01-12T19:33:32.838Z,99719.81
2023-01-12T19:36:08.284Z,99711.91
2023-01-12T19:38:38.757Z,99704.97
2023-01-12T19:41:33.592Z,99704.97
2023-01-12T19:44:05.921Z,99705.84
2023-01-12T19:46:33.147Z,99705.84
2023-01-12T19:48:59.926Z,99699.72
2023-01-12T19:51:26.544Z,99700.59
2023-01-12T19:53:53.007Z,99695.31
2023-01-12T19:56:22.345Z,99687.50
2023-01-12T19:58:49.368Z,99695.38
2023-01-12T20:01:21.650Z,99685.78
2023-01-12T20:03:51.045Z,99680.56
2023-01-12T20:06:17.784Z,99677.94
2023-01-12T20:08:44.891Z,99677.03
2023-01-12T20:11:11.495Z,99676.16
2023-01-12T20:13:38.074Z,99676.16
2023-01-12T20:16:09.830Z,99667.53
2023-01-12T20:18:36.941Z,99671.88
2023-01-12T20:21:07.489Z,99676.22
2023-01-12T20:23:34.056Z,99680.63
2023-01-12T20:26:00.970Z,99676.22
2023-01-12T20:28:28.168Z,99682.34
2023-01-12T20:30:55.197Z,99680.63
2023-01-12T20:33:22.495Z,99677.03
2023-01-12T20:35:49.962Z,99675.31
2023-01-12T20:38:16.930Z,99680.56
2023-01-12T20:40:45.074Z,99679.66
2023-01-12T20:43:11.788Z,99677.88
2023-01-12T20:45:40.959Z,99681.34
2023-01-12T20:48:13.657Z,99683.06
2023-01-12T20:50:45.899Z,99681.25
2023-01-12T20:53:13.575Z,99669.91
2023-01-12T20:55:48.525Z,99683.88
2023-01-12T20:58:16.032Z,99683.88
2023-01-12T21:00:43.018Z,99694.34
2023-01-12T21:03:09.802Z,99692.50
2023-01-12T21:05:40.978Z,99692.50
2023-01-12T21:08:08.676Z,99689.88
2023-01-12T21:10:36.700Z,99685.53
2023-01-12T21:13:03.689Z,99685.53
2023-01-12T21:15:30.738Z,99684.66
2023-01-12T21:17:57.521Z,99676.81
2023-01-12T21:20:24.253Z,99675.97
2023-01-12T21:22:51.963Z,99668.94
2023-01-12T21:25:18.759Z,99680.31
2023-01-12T21:27:45.742Z,99679.38
2023-01-12T21:30:12.361Z,99667.22
2023-01-12T21:32:38.861Z,99689.00
2023-01-12T21:35:06.063Z,99685.53
2023-01-12T21:37:32.531Z,99691.56
2023-01-12T21:39:59.188Z,99697.63
2023-01-12T21:42:44.899Z,99693.25
2023-01-12T21:45:11.456Z,99692.38
2023-01-12T21:47:37.940Z,99695.81
2023-01-12T21:50:05.642Z,99692.38
2023-01-12T21:52:33.349Z,99692.38
2023-01-12T21:55:00.426Z,99693.31
2023-01-12T21:57:26.950Z,99691.59
2023-01-12T21:59:53.527Z,99690.75
2023-01-12T22:02:20.772Z,99681.13
2023-01-12T22:04:47.793Z,99686.31
2023-01-12T22:07:17.123Z,99681.97
2023-01-12T22:09:43.566Z,99670.59
2023-01-12T22:12:10.010Z,99670.53
2023-01-12T22:14:36.499Z,99680.13
2023-01-12T22:17:03.237Z,99681.03
2023-01-12T22:19:30.226Z,99681.91
2023-01-12T22:21:57.091Z,99687.97
2023-01-12T22:24:24.059Z,99691.44
2023-01-12T22:26:54.977Z,99684.44
2023-01-12T22:29:21.563Z,99684.44
2023-01-12T22:31:48.144Z,99693.16
2023-01-12T22:34:14.831Z,99697.53
2023-01-12T22:36:43.341Z,99695.75
2023-01-12T22:39:12.742Z,99687.91
2023-01-12T22:41:40.577Z,99687.91
2023-01-12T22:44:07.117Z,99682.72
2023-01-12T22:46:33.687Z,99693.16
2023-01-12T22:49:00.563Z,99687.97
2023-01-12T22:51:29.657Z,99694.03
2023-01-12T22:53:57.506Z,99698.44
2023-01-12T22:56:26.641Z,99693.16
2023-01-12T22:58:55.276Z,99690.53
2023-01-12T23:01:23.395Z,99694.84
2023-01-12T23:03:56.080Z,99674.81
2023-01-12T23:06:25.032Z,99682.72
2023-01-12T23:08:51.859Z,99666.19
2023-01-12T23:11:21.335Z,99661.72
2023-01-12T23:13:48.415Z,99657.41
2023-01-12T23:16:16.148Z,99657.47
2023-01-12T23:18:44.812Z,99659.22
2023-01-12T23:21:15.720Z,99669.75
2023-01-12T23:23:48.559Z,99660.19
2023-01-12T23:26:25.967Z,99659.28
2023-01-12T23:28:55.842Z,99654.91
2023-01-12T23:31:25.781Z,99650.56
2023-01-12T23:33:52.970Z,99642.78
2023-01-12T23:36:23.871Z,99651.50
2023-01-12T23:39:01.601Z,99641.94
2023-01-12T23:41:31.761Z,99637.53
2023-01-12T23:44:00.061Z,99638.41
2023-01-12T23:46:28.355Z,99635.81
2023-01-12T23:48:57.197Z,99623.63
2023-01-12T23:51:25.772Z,99639.19
2023-01-12T23:53:53.569Z,99621.72
2023-01-12T23:56:20.750Z,99628.72
2023-01-12T23:58:47.696Z,99633.13
